Time;durP1;ratioP1;P1;durP2;ratioP2;P2;SDS_P1;SDS_P2;PMS_P1;PMS_P2;Temp;Humidity;BMP_temperature;BMP_pressure;BME280_temperature;BME280_humidity;BME280_pressure;Samples;Min_cycle;Max_cycle;Signal;HPM_P1;HPM_P2
2022/04/17 00:00:20;;;;;;;3.75;1.92;;;21.10;42.30;;;;;;5135972;27;20015;-60
2022/04/17 00:02:46;;;;;;;2.58;2.38;;;21.10;42.30;;;;;;5135782;27;20035;-60
2022/04/17 00:05:12;;;;;;;2.53;2.22;;;21.00;42.20;;;;;;5136452;27;20016;-60
2022/04/17 00:07:37;;;;;;;2.50;2.05;;;21.00;42.20;;;;;;5119609;27;20011;-60
2022/04/17 00:10:04;;;;;;;2.55;2.35;;;21.10;42.30;;;;;;5119845;27;20023;-60
2022/04/17 00:12:30;;;;;;;2.22;2.03;;;21.00;42.20;;;;;;5137184;27;20023;-60
2022/04/17 00:14:56;;;;;;;2.65;2.42;;;21.00;42.40;;;;;;5118522;27;20011;-60
2022/04/17 00:17:22;;;;;;;2.78;2.33;;;21.00;42.30;;;;;;5136449;27;20106;-60
2022/04/17 00:19:49;;;;;;;3.45;2.40;;;21.00;42.40;;;;;;5136466;27;20023;-60
2022/04/17 00:22:15;;;;;;;2.83;2.50;;;21.00;42.40;;;;;;5136492;27;20545;-61
2022/04/17 00:24:42;;;;;;;3.28;2.30;;;21.00;42.40;;;;;;5136224;27;20107;-61
2022/04/17 00:27:08;;;;;;;3.25;2.10;;;21.00;42.40;;;;;;5135683;27;20041;-60
2022/04/17 00:29:34;;;;;;;3.28;2.40;;;21.00;42.40;;;;;;5135108;27;20004;-60
2022/04/17 00:31:59;;;;;;;3.25;2.30;;;21.00;42.40;;;;;;5134924;27;20027;-60
2022/04/17 00:34:26;;;;;;;2.30;2.05;;;21.00;42.40;;;;;;5100159;27;20102;-60
2022/04/17 00:36:52;;;;;;;2.33;2.13;;;21.00;42.40;;;;;;5135499;27;20015;-60
2022/04/17 00:39:19;;;;;;;2.65;2.13;;;21.00;42.50;;;;;;5134882;27;20030;-60
2022/04/17 00:41:46;;;;;;;3.95;2.20;;;21.00;42.40;;;;;;5134670;27;20056;-60
2022/04/17 00:44:12;;;;;;;3.20;2.58;;;20.90;42.40;;;;;;5134730;27;20462;-60
2022/04/17 00:46:39;;;;;;;2.90;2.60;;;20.90;42.40;;;;;;5134998;27;20089;-60
2022/04/17 00:49:06;;;;;;;2.35;2.03;;;20.90;42.40;;;;;;5135199;27;20020;-61
2022/04/17 00:51:32;;;;;;;3.38;2.13;;;20.90;42.40;;;;;;5136837;27;20019;-60
2022/04/17 00:53:59;;;;;;;2.53;2.33;;;20.90;42.40;;;;;;5138465;27;20015;-60
2022/04/17 00:56:26;;;;;;;2.28;2.08;;;20.90;43.00;;;;;;5137407;27;20022;-60
2022/04/17 00:58:52;;;;;;;2.58;2.30;;;20.90;42.40;;;;;;5136920;27;20030;-60
2022/04/17 01:01:17;;;;;;;2.22;2.03;;;20.90;42.40;;;;;;5117217;27;20385;-60
2022/04/17 01:03:44;;;;;;;2.30;2.10;;;20.90;42.40;;;;;;5135159;27;20469;-60
2022/04/17 01:06:10;;;;;;;2.60;2.25;;;20.90;42.40;;;;;;5136346;27;20079;-59
2022/04/17 01:08:41;;;;;;;2.63;2.42;;;20.90;42.40;;;;;;5137548;27;20023;-60
2022/04/17 01:11:07;;;;;;;2.65;2.42;;;20.90;42.40;;;;;;5138022;27;20489;-60
2022/04/17 01:13:34;;;;;;;2.83;2.47;;;20.80;42.40;;;;;;5138971;27;20105;-61
2022/04/17 01:16:01;;;;;;;2.28;1.92;;;20.90;42.40;;;;;;5138585;27;20041;-60
2022/04/17 01:18:28;;;;;;;2.45;2.10;;;20.90;42.40;;;;;;5135790;27;20038;-61
2022/04/17 01:20:54;;;;;;;2.50;2.30;;;20.80;42.40;;;;;;5134600;27;20046;-60
2022/04/17 01:28:49;;;;;;;2.03;1.83;;;20.80;42.40;;;;;;5134430;27;20061;-60
2022/04/17 01:31:14;;;;;;;2.58;2.20;;;20.80;42.50;;;;;;5134322;27;20477;-60
2022/04/17 01:33:44;;;;;;;2.33;2.13;;;20.80;42.50;;;;;;5134360;27;20026;-60
2022/04/17 01:36:10;;;;;;;3.65;2.30;;;20.80;42.50;;;;;;5134003;27;20022;-60
2022/04/17 01:38:38;;;;;;;2.72;2.25;;;20.80;42.50;;;;;;5134380;27;20122;-61
2022/04/17 01:41:04;;;;;;;2.35;2.08;;;20.80;42.40;;;;;;5133952;27;20019;-60
2022/04/17 01:43:30;;;;;;;2.25;2.00;;;20.80;42.50;;;;;;5134136;28;20011;-62
2022/04/17 01:45:57;;;;;;;2.47;2.28;;;20.80;43.00;;;;;;5138219;27;20474;-61
2022/04/17 01:48:23;;;;;;;2.58;2.38;;;20.80;42.40;;;;;;5140833;27;20072;-61
2022/04/17 01:50:49;;;;;;;2.45;2.25;;;20.80;42.50;;;;;;5140666;27;20447;-62
2022/04/17 01:53:15;;;;;;;2.50;2.17;;;20.80;42.50;;;;;;5140606;27;20023;-61
2022/04/17 01:55:42;;;;;;;1.95;1.80;;;20.80;42.50;;;;;;5123024;27;20072;-62
2022/04/17 01:58:08;;;;;;;2.25;2.05;;;20.70;42.40;;;;;;5122140;27;20015;-62
2022/04/17 02:00:34;;;;;;;2.42;2.22;;;20.80;42.50;;;;;;5140843;27;20026;-61
2022/04/17 02:03:01;;;;;;;2.50;2.30;;;20.80;42.50;;;;;;5122492;27;20023;-61
2022/04/17 02:05:26;;;;;;;2.40;2.20;;;20.80;42.50;;;;;;5122449;27;20004;-62
2022/04/17 02:07:52;;;;;;;3.08;2.22;;;20.80;42.50;;;;;;5122204;27;20076;-62
2022/04/17 02:10:19;;;;;;;2.33;2.13;;;20.80;42.50;;;;;;5122109;27;20019;-62
2022/04/17 02:12:49;;;;;;;2.08;1.88;;;20.70;42.50;;;;;;5140643;27;20027;-61
2022/04/17 02:15:16;;;;;;;2.30;2.10;;;20.70;42.50;;;;;;5140607;27;20007;-61
2022/04/17 02:17:42;;;;;;;2.65;1.85;;;20.70;42.50;;;;;;5140340;27;20015;-62
2022/04/17 02:20:09;;;;;;;2.47;2.28;;;20.70;42.50;;;;;;5121886;27;20079;-60
2022/04/17 02:22:36;;;;;;;3.05;2.40;;;20.70;42.50;;;;;;5140574;27;20065;-61
2022/04/17 02:25:05;;;;;;;2.45;2.20;;;20.70;42.50;;;;;;5140674;27;20011;-61
2022/04/17 02:27:31;;;;;;;2.55;2.33;;;20.70;42.50;;;;;;5140669;27;20053;-61
2022/04/17 02:29:58;;;;;;;2.05;1.95;;;20.70;42.40;;;;;;5122262;27;20058;-62
2022/04/17 02:32:25;;;;;;;2.67;2.42;;;20.70;42.50;;;;;;5140632;27;20030;-62
2022/04/17 02:34:51;;;;;;;2.50;2.30;;;20.70;42.50;;;;;;5140608;27;20019;-62
2022/04/17 02:37:17;;;;;;;3.45;2.38;;;20.70;42.40;;;;;;5122853;27;20015;-62
2022/04/17 02:39:42;;;;;;;4.25;2.50;;;20.70;42.40;;;;;;5140793;27;20038;-61
2022/04/17 02:42:09;;;;;;;4.10;2.05;;;20.70;42.40;;;;;;5142213;27;20423;-62
2022/04/17 02:44:34;;;;;;;2.40;2.20;;;20.60;42.40;;;;;;5108024;27;20015;-61
2022/04/17 02:49:46;;;;;;;2.30;2.10;;;20.60;42.30;;;;;;5142712;27;20542;-61
2022/04/17 02:52:15;;;;;;;2.60;2.40;;;20.60;42.40;;;;;;5141892;27;20011;-61
2022/04/17 02:54:41;;;;;;;2.78;2.50;;;20.60;42.40;;;;;;5123009;27;20027;-61
2022/04/17 02:57:07;;;;;;;2.88;2.30;;;20.60;42.40;;;;;;5137857;27;20023;-61
2022/04/17 02:59:33;;;;;;;2.25;1.92;;;20.60;42.40;;;;;;5119351;27;20031;-62
2022/04/17 03:07:29;;;;;;;3.00;2.30;;;20.60;42.40;;;;;;5137695;27;20144;-62
2022/04/17 03:09:55;;;;;;;3.00;2.33;;;20.60;42.30;;;;;;5137902;27;20050;-62
2022/04/17 03:12:23;;;;;;;3.70;2.20;;;20.60;42.40;;;;;;5136917;27;20035;-62
2022/04/17 03:14:49;;;;;;;3.03;2.35;;;20.50;42.30;;;;;;5137966;27;20461;-62
2022/04/17 03:17:16;;;;;;;2.38;2.17;;;20.60;42.40;;;;;;5120130;27;20023;-61
2022/04/17 03:19:42;;;;;;;2.88;2.50;;;20.50;42.30;;;;;;5138297;27;20051;-61
2022/04/17 03:22:11;;;;;;;3.30;2.50;;;20.50;42.30;;;;;;5119560;27;20025;-61
2022/04/17 03:24:37;;;;;;;2.38;2.08;;;20.50;42.40;;;;;;5136743;27;20047;-62
2022/04/17 03:27:05;;;;;;;2.83;2.30;;;20.50;42.40;;;;;;5137648;27;20031;-62
2022/04/17 03:29:31;;;;;;;3.10;2.20;;;20.50;42.40;;;;;;5136988;27;20019;-62
2022/04/17 03:31:58;;;;;;;4.63;2.28;;;20.50;42.50;;;;;;5120837;27;20076;-62
2022/04/17 03:34:24;;;;;;;2.47;2.08;;;20.50;42.40;;;;;;5139823;27;20011;-62
2022/04/17 03:36:50;;;;;;;2.10;1.90;;;20.50;42.40;;;;;;5119659;27;20066;-62
2022/04/17 03:39:16;;;;;;;2.88;2.10;;;20.50;42.40;;;;;;5137310;27;20027;-62
2022/04/17 03:41:42;;;;;;;2.97;2.20;;;20.50;42.40;;;;;;5118680;27;20103;-62
2022/04/17 03:44:08;;;;;;;3.28;2.22;;;20.50;42.40;;;;;;5119034;27;20413;-62
2022/04/17 03:46:34;;;;;;;2.88;2.30;;;20.50;42.30;;;;;;5136693;27;20063;-62
2022/04/17 03:49:03;;;;;;;4.32;2.60;;;20.50;42.30;;;;;;5136397;27;20015;-62
2022/04/17 03:51:30;;;;;;;2.42;1.85;;;20.50;42.30;;;;;;5136926;27;20500;-62
2022/04/17 03:53:56;;;;;;;3.00;2.25;;;20.50;42.40;;;;;;5136042;27;20376;-62
2022/04/17 03:56:23;;;;;;;2.35;2.05;;;20.50;42.40;;;;;;5136091;27;20107;-62
2022/04/17 03:58:49;;;;;;;2.13;1.92;;;20.50;42.30;;;;;;5135883;27;20051;-61
2022/04/17 04:01:15;;;;;;;2.65;2.40;;;20.50;42.30;;;;;;5136012;27;20012;-62
2022/04/17 04:03:41;;;;;;;2.35;2.13;;;20.50;42.30;;;;;;5136302;27;20012;-62
2022/04/17 04:06:08;;;;;;;2.47;2.17;;;20.50;42.30;;;;;;5135511;27;20015;-61
2022/04/17 04:08:35;;;;;;;2.05;1.85;;;20.50;42.30;;;;;;5135422;27;20034;-62
2022/04/17 04:11:00;;;;;;;2.55;2.28;;;20.50;42.30;;;;;;5117024;27;20041;-62
2022/04/17 04:13:27;;;;;;;3.15;2.47;;;20.50;42.20;;;;;;5135212;27;20023;-62
2022/04/17 04:15:55;;;;;;;2.40;2.00;;;20.40;42.10;;;;;;5116817;27;20077;-61
2022/04/17 04:18:21;;;;;;;2.90;2.47;;;20.40;42.20;;;;;;5134989;27;20019;-62
2022/04/17 04:20:47;;;;;;;2.28;2.08;;;20.40;42.10;;;;;;5135117;27;20021;-62
2022/04/17 04:23:13;;;;;;;7.03;2.30;;;20.40;42.30;;;;;;5135553;27;20174;-62
2022/04/17 04:25:39;;;;;;;2.22;2.03;;;20.40;42.30;;;;;;5135911;27;20016;-61
2022/04/17 04:30:50;;;;;;;4.47;2.20;;;20.40;42.00;;;;;;5136058;27;20038;-61
2022/04/17 04:33:17;;;;;;;2.70;2.42;;;20.40;42.00;;;;;;5117253;27;20023;-61
2022/04/17 04:35:43;;;;;;;2.20;2.00;;;20.30;42.20;;;;;;5135438;27;20133;-61
2022/04/17 04:38:09;;;;;;;2.50;2.30;;;20.30;42.20;;;;;;5117060;27;20046;-61
2022/04/17 04:40:35;;;;;;;2.50;2.10;;;20.40;42.10;;;;;;5116918;27;20050;-61
2022/04/17 04:43:01;;;;;;;3.58;2.50;;;20.30;42.00;;;;;;5135144;27;20453;-61
2022/04/17 04:48:12;;;;;;;3.22;2.03;;;20.40;42.10;;;;;;5134838;27;20031;-61
2022/04/17 04:50:38;;;;;;;2.38;2.17;;;20.30;42.00;;;;;;5134658;27;20022;-62
2022/04/17 04:53:04;;;;;;;2.30;2.10;;;20.30;42.10;;;;;;5116299;27;20008;-62
2022/04/17 04:55:53;;;;;;;2.22;2.03;;;20.30;42.10;;;;;;5134975;27;20015;-63
2022/04/17 04:58:19;;;;;;;3.28;1.98;;;20.30;42.10;;;;;;5134267;27;20027;-62
2022/04/17 05:00:45;;;;;;;2.60;2.40;;;20.30;42.10;;;;;;5134583;27;20370;-62
2022/04/17 05:03:11;;;;;;;3.47;2.45;;;20.30;42.10;;;;;;5134494;27;20068;-62
2022/04/17 05:05:38;;;;;;;4.75;2.40;;;20.30;42.10;;;;;;5116509;27;20090;-62
2022/04/17 05:08:05;;;;;;;2.40;2.20;;;20.30;42.10;;;;;;5134685;27;20016;-62
2022/04/17 05:10:32;;;;;;;2.13;1.92;;;20.30;42.00;;;;;;5134946;27;20024;-61
2022/04/17 05:12:59;;;;;;;3.20;2.40;;;20.30;42.10;;;;;;5134735;27;20019;-62
2022/04/17 05:15:24;;;;;;;2.95;2.40;;;20.30;42.00;;;;;;5134289;27;20054;-62
2022/04/17 05:17:50;;;;;;;2.78;2.22;;;20.30;42.10;;;;;;5134398;27;20038;-63
2022/04/17 05:20:16;;;;;;;2.90;2.00;;;20.20;42.00;;;;;;5114942;27;20022;-62
2022/04/17 05:22:44;;;;;;;3.63;2.15;;;20.30;42.10;;;;;;5134004;27;20040;-62
2022/04/17 05:25:10;;;;;;;2.45;2.25;;;20.20;42.00;;;;;;5133925;27;20015;-62
2022/04/17 05:27:36;;;;;;;2.15;1.95;;;20.30;42.00;;;;;;5133793;27;20011;-62
2022/04/17 05:30:03;;;;;;;2.30;2.10;;;20.30;42.00;;;;;;5115692;27;20046;-62
2022/04/17 05:32:30;;;;;;;2.35;1.90;;;20.30;42.00;;;;;;5133901;27;20019;-62
2022/04/17 05:34:56;;;;;;;2.75;2.10;;;20.30;41.90;;;;;;5134084;27;20011;-62
2022/04/17 05:37:22;;;;;;;2.20;2.00;;;20.30;42.00;;;;;;5115384;28;20034;-62
2022/04/17 05:39:49;;;;;;;3.38;2.20;;;20.30;42.00;;;;;;5133694;27;20038;-61
2022/04/17 05:42:15;;;;;;;4.28;2.10;;;20.20;42.00;;;;;;5134017;27;20038;-62
2022/04/17 05:44:41;;;;;;;2.53;1.70;;;20.30;42.00;;;;;;5134005;28;20462;-61
2022/04/17 05:47:07;;;;;;;1.95;1.77;;;20.30;42.10;;;;;;5115556;28;20050;-61
2022/04/17 05:49:34;;;;;;;2.25;2.03;;;20.30;42.20;;;;;;5133991;28;20027;-61
2022/04/17 05:52:00;;;;;;;1.95;1.73;;;20.30;42.10;;;;;;5133922;28;20019;-61
2022/04/17 05:54:27;;;;;;;2.40;2.08;;;20.30;42.00;;;;;;5134327;28;20030;-61
2022/04/17 05:56:53;;;;;;;5.97;2.10;;;20.30;42.00;;;;;;5115319;28;20473;-62
2022/04/17 05:59:20;;;;;;;2.30;2.10;;;20.30;41.90;;;;;;5115166;28;20038;-61
2022/04/17 06:01:47;;;;;;;2.28;2.05;;;20.30;41.80;;;;;;5133913;28;20068;-62
2022/04/17 06:04:13;;;;;;;2.40;2.08;;;20.20;41.70;;;;;;5133485;28;20019;-63
2022/04/17 06:06:39;;;;;;;2.72;2.00;;;20.20;41.80;;;;;;5133541;28;20454;-63
2022/04/17 06:09:05;;;;;;;2.90;2.35;;;20.30;41.80;;;;;;5115318;28;20068;-61
2022/04/17 06:11:32;;;;;;;3.00;2.40;;;20.30;41.70;;;;;;5133582;28;20076;-62
2022/04/17 06:13:58;;;;;;;2.47;2.00;;;20.30;41.90;;;;;;5133197;28;20035;-61
2022/04/17 06:16:25;;;;;;;3.83;1.90;;;20.20;41.60;;;;;;5133592;28;20385;-62
2022/04/17 06:18:51;;;;;;;2.28;2.03;;;20.20;41.60;;;;;;5133435;28;20497;-61
2022/04/17 06:21:18;;;;;;;2.22;2.03;;;20.20;41.50;;;;;;5115448;28;20015;-61
2022/04/17 06:23:44;;;;;;;3.13;2.30;;;20.30;41.60;;;;;;5133239;28;20032;-62
2022/04/17 06:26:10;;;;;;;2.40;2.15;;;20.20;41.60;;;;;;5133311;28;20027;-62
2022/04/17 06:28:38;;;;;;;3.67;2.20;;;20.20;41.60;;;;;;5133421;28;20038;-62
2022/04/17 06:31:07;;;;;;;2.10;1.80;;;20.30;41.70;;;;;;5134360;27;20039;-62
2022/04/17 06:33:33;;;;;;;2.20;2.00;;;20.20;41.60;;;;;;5137591;27;20027;-62
2022/04/17 06:35:59;;;;;;;3.20;1.80;;;20.20;41.70;;;;;;5137487;27;20022;-62
2022/04/17 06:38:25;;;;;;;2.17;1.98;;;20.30;41.80;;;;;;5137330;27;20381;-62
2022/04/17 06:40:52;;;;;;;1.92;1.75;;;20.30;41.80;;;;;;5137467;27;20020;-62
2022/04/17 06:43:19;;;;;;;2.08;1.88;;;20.30;41.70;;;;;;5137766;27;20024;-62
2022/04/17 06:45:45;;;;;;;2.10;1.80;;;20.30;41.70;;;;;;5137078;27;20018;-62
2022/04/17 06:48:12;;;;;;;2.80;1.80;;;20.30;41.60;;;;;;5137296;27;20023;-62
2022/04/17 06:50:39;;;;;;;1.98;1.70;;;20.30;41.40;;;;;;5136977;27;20014;-62
2022/04/17 06:53:05;;;;;;;2.45;1.90;;;20.30;41.50;;;;;;5118676;27;20023;-62
2022/04/17 06:55:30;;;;;;;2.30;2.10;;;20.40;41.40;;;;;;5118302;27;20026;-62
2022/04/17 06:57:56;;;;;;;2.33;1.90;;;20.40;41.30;;;;;;5136726;27;20015;-62
2022/04/17 07:00:22;;;;;;;2.42;1.95;;;20.40;41.20;;;;;;5136887;27;20027;-63
2022/04/17 07:02:48;;;;;;;2.20;2.00;;;20.40;41.10;;;;;;5136848;27;20519;-63
2022/04/17 07:05:15;;;;;;;3.55;2.13;;;20.40;41.10;;;;;;5136523;27;20473;-62
2022/04/17 07:07:41;;;;;;;3.25;2.22;;;20.50;41.20;;;;;;5118231;27;20457;-62
2022/04/17 07:10:08;;;;;;;2.35;1.83;;;20.50;41.10;;;;;;5136561;27;20072;-62
2022/04/17 07:12:34;;;;;;;2.22;2.03;;;20.50;41.10;;;;;;5118311;27;20019;-62
2022/04/17 07:15:00;;;;;;;2.03;1.83;;;20.50;41.20;;;;;;5136718;27;20011;-62
2022/04/17 07:17:36;;;;;;;4.25;1.90;;;20.50;41.20;;;;;;5136665;27;20067;-62
2022/04/17 07:20:06;;;;;;;2.08;1.88;;;20.50;41.10;;;;;;5136485;27;20023;-62
2022/04/17 07:22:35;;;;;;;2.10;1.90;;;20.50;41.10;;;;;;5118390;27;20057;-62
2022/04/17 07:25:02;;;;;;;2.63;2.10;;;20.50;41.10;;;;;;5118309;27;20020;-62
2022/04/17 07:27:28;;;;;;;2.83;2.10;;;20.50;41.10;;;;;;5136611;27;20015;-62
2022/04/17 07:29:55;;;;;;;2.38;2.00;;;20.50;41.00;;;;;;5118120;27;20015;-61
2022/04/17 07:32:21;;;;;;;2.45;2.10;;;20.50;41.00;;;;;;5136506;27;20362;-62
2022/04/17 07:34:47;;;;;;;2.20;1.80;;;20.50;41.00;;;;;;5136425;27;20500;-62
2022/04/17 07:37:24;;;;;;;2.00;1.80;;;20.50;40.90;;;;;;5137205;27;20064;-61
2022/04/17 07:39:51;;;;;;;2.25;2.03;;;20.50;40.90;;;;;;5136363;27;20019;-61
2022/04/17 07:42:19;;;;;;;2.45;2.03;;;20.50;40.90;;;;;;5135768;27;20094;-62
2022/04/17 07:44:45;;;;;;;2.67;2.17;;;20.50;40.90;;;;;;5135912;27;20079;-62
2022/04/17 07:47:11;;;;;;;2.50;2.10;;;20.50;40.90;;;;;;5118024;27;20050;-62
2022/04/17 07:49:37;;;;;;;2.85;1.73;;;20.50;40.80;;;;;;5136714;27;20023;-61
2022/04/17 07:52:09;;;;;;;3.25;2.00;;;20.50;40.90;;;;;;5136531;27;20023;-61
2022/04/17 07:54:36;;;;;;;2.65;2.05;;;20.50;40.90;;;;;;5136374;27;20050;-61
2022/04/17 07:57:02;;;;;;;2.88;2.15;;;20.50;40.80;;;;;;5136056;27;20011;-62
2022/04/17 07:59:29;;;;;;;2.22;2.03;;;20.50;40.80;;;;;;5135813;27;20102;-62
2022/04/17 08:02:01;;;;;;;2.10;1.90;;;20.50;40.80;;;;;;5135771;27;20022;-62
2022/04/17 08:04:30;;;;;;;2.53;2.10;;;20.50;40.80;;;;;;5135759;27;20477;-62
2022/04/17 08:06:56;;;;;;;2.50;1.80;;;20.50;40.80;;;;;;5135445;27;20026;-62
2022/04/17 08:09:23;;;;;;;2.60;1.98;;;20.50;40.70;;;;;;5135700;27;20027;-62
2022/04/17 08:11:51;;;;;;;2.28;1.80;;;20.50;40.70;;;;;;5135836;27;20020;-64
2022/04/17 08:14:21;;;;;;;2.42;2.00;;;20.50;40.70;;;;;;5117906;27;20027;-62
2022/04/17 08:16:47;;;;;;;2.90;2.20;;;20.50;40.70;;;;;;5135369;27;20094;-62
2022/04/17 08:19:12;;;;;;;3.78;2.08;;;20.50;40.70;;;;;;5099797;27;20123;-62
2022/04/17 08:21:40;;;;;;;2.53;2.03;;;20.50;40.60;;;;;;5117204;27;20012;-62
2022/04/17 08:24:06;;;;;;;2.08;1.70;;;20.50;40.60;;;;;;5113325;28;20093;-62
2022/04/17 08:26:32;;;;;;;2.47;1.90;;;20.50;40.50;;;;;;5113253;28;20007;-62
2022/04/17 08:28:58;;;;;;;1.80;1.70;;;20.50;40.50;;;;;;5113478;28;20011;-62
2022/04/17 08:31:24;;;;;;;3.25;2.10;;;20.50;40.50;;;;;;5079380;28;20016;-61
2022/04/17 08:33:49;;;;;;;2.50;1.80;;;20.50;40.50;;;;;;5113375;28;20378;-62
2022/04/17 08:36:15;;;;;;;2.00;1.80;;;20.50;40.40;;;;;;5079381;28;20051;-62
2022/04/17 08:38:42;;;;;;;1.90;1.60;;;20.50;40.30;;;;;;5113118;28;20035;-62
2022/04/17 08:41:09;;;;;;;3.10;2.00;;;20.50;40.40;;;;;;5114646;28;20019;-62
2022/04/17 08:43:35;;;;;;;2.72;2.00;;;20.50;40.40;;;;;;5114732;28;20024;-61
2022/04/17 08:46:01;;;;;;;2.47;1.90;;;20.50;40.40;;;;;;5096578;28;20099;-62
2022/04/17 08:48:28;;;;;;;3.72;2.00;;;20.50;40.30;;;;;;5115229;27;20068;-62
2022/04/17 08:50:55;;;;;;;2.72;1.80;;;20.50;40.40;;;;;;5115017;28;20008;-61
2022/04/17 08:53:20;;;;;;;1.98;1.60;;;20.50;40.40;;;;;;5114735;28;20036;-62
2022/04/17 08:55:47;;;;;;;3.67;2.17;;;20.50;40.40;;;;;;5112278;28;20465;-62
2022/04/17 08:58:13;;;;;;;2.40;1.88;;;20.50;40.40;;;;;;5114271;28;20026;-62
2022/04/17 09:00:40;;;;;;;1.90;1.67;;;20.50;40.50;;;;;;5114396;28;20027;-62
2022/04/17 09:03:27;;;;;;;4.68;1.77;;;20.50;40.40;;;;;;5114335;28;20012;-62
2022/04/17 09:05:53;;;;;;;2.25;1.60;;;20.50;40.40;;;;;;5114037;27;20024;-62
2022/04/17 09:08:21;;;;;;;2.22;1.90;;;20.50;40.50;;;;;;5114355;28;20098;-60
2022/04/17 09:10:54;;;;;;;2.40;2.05;;;20.50;40.40;;;;;;5114077;28;20016;-62
2022/04/17 09:13:27;;;;;;;2.80;1.80;;;20.50;40.40;;;;;;5112520;28;20469;-62
2022/04/17 09:15:54;;;;;;;1.75;1.65;;;20.50;40.40;;;;;;5114076;28;20047;-61
2022/04/17 09:18:19;;;;;;;1.70;1.60;;;20.50;40.30;;;;;;5113756;28;20094;-61
2022/04/17 09:20:46;;;;;;;2.55;1.70;;;20.50;40.20;;;;;;5113849;28;20020;-62
2022/04/17 09:23:12;;;;;;;1.73;1.48;;;20.50;40.30;;;;;;5121782;27;20035;-64
2022/04/17 09:25:39;;;;;;;1.90;1.80;;;20.50;40.30;;;;;;5134087;27;20047;-60
2022/04/17 09:28:06;;;;;;;2.38;1.70;;;20.50;40.20;;;;;;5134074;27;20045;-60
2022/04/17 09:30:39;;;;;;;1.90;1.65;;;20.50;40.20;;;;;;5134180;27;20022;-60
2022/04/17 09:33:14;;;;;;;2.28;1.63;;;20.50;40.20;;;;;;5134161;27;20026;-60
2022/04/17 09:35:41;;;;;;;2.00;1.77;;;20.50;40.10;;;;;;5134164;27;20064;-61
2022/04/17 09:38:07;;;;;;;2.00;1.90;;;20.50;40.20;;;;;;5134141;27;20019;-60
2022/04/17 09:40:36;;;;;;;2.03;1.75;;;20.50;40.10;;;;;;5133562;27;20047;-60
2022/04/17 09:43:14;;;;;;;1.92;1.73;;;20.50;40.20;;;;;;5115932;28;20534;-60
2022/04/17 09:45:59;;;;;;;3.08;1.83;;;20.50;40.20;;;;;;5134531;28;20026;-59
2022/04/17 09:48:25;;;;;;;3.08;1.80;;;20.50;40.20;;;;;;5136521;28;20015;-60
2022/04/17 09:50:51;;;;;;;1.63;1.52;;;20.50;40.20;;;;;;5134132;28;20015;-60
2022/04/17 09:53:38;;;;;;;2.08;1.88;;;20.50;40.20;;;;;;5115503;28;20386;-60
2022/04/17 09:56:10;;;;;;;2.47;1.63;;;20.50;40.00;;;;;;5133936;28;20015;-60
2022/04/17 09:58:48;;;;;;;1.92;1.60;;;20.50;40.10;;;;;;5133800;28;20038;-60
2022/04/17 10:01:18;;;;;;;1.67;1.58;;;20.50;40.00;;;;;;5135104;28;20035;-60
2022/04/17 10:03:45;;;;;;;2.53;1.65;;;20.50;40.00;;;;;;5136388;28;20015;-60
2022/04/17 10:06:12;;;;;;;2.20;1.70;;;20.50;40.00;;;;;;5135345;27;20043;-60
2022/04/17 10:08:42;;;;;;;2.00;1.73;;;20.50;40.00;;;;;;5138260;27;20012;-60
2022/04/17 10:11:08;;;;;;;2.33;1.70;;;20.50;40.00;;;;;;5103285;27;20003;-60
2022/04/17 10:13:35;;;;;;;2.38;1.50;;;20.50;39.90;;;;;;5138296;27;20043;-60
2022/04/17 10:16:01;;;;;;;2.33;1.50;;;20.50;39.90;;;;;;5119619;27;20015;-60
2022/04/17 10:18:29;;;;;;;2.53;1.88;;;20.50;40.00;;;;;;5137884;27;20060;-60
2022/04/17 10:20:56;;;;;;;2.08;1.70;;;20.50;40.00;;;;;;5137527;27;20007;-60
2022/04/17 10:23:22;;;;;;;2.13;1.67;;;20.50;40.00;;;;;;5119616;27;20104;-62
2022/04/17 10:25:48;;;;;;;2.08;1.75;;;20.50;39.90;;;;;;5119466;27;20102;-60
2022/04/17 10:28:14;;;;;;;1.70;1.60;;;20.50;40.00;;;;;;5137729;27;20035;-60
2022/04/17 10:31:12;;;;;;;1.80;1.48;;;20.50;39.80;;;;;;5119412;27;20012;-60
2022/04/17 10:34:32;;;;;;;1.80;1.70;;;20.50;39.90;;;;;;5093703;27;20130;-60
2022/04/17 10:37:19;;;;;;;1.90;1.80;;;20.60;39.80;;;;;;5033990;28;20029;-60
2022/04/17 10:39:51;;;;;;;2.17;1.65;;;20.50;39.60;;;;;;5033939;28;20240;-60
2022/04/17 10:42:18;;;;;;;1.98;1.75;;;20.50;39.80;;;;;;5017712;28;20517;-60
2022/04/17 10:44:45;;;;;;;2.13;1.77;;;20.50;39.70;;;;;;5033921;28;20026;-60
2022/04/17 10:47:20;;;;;;;1.73;1.55;;;20.50;39.70;;;;;;5017661;28;20017;-60
2022/04/17 10:49:56;;;;;;;1.77;1.50;;;20.50;39.30;;;;;;5034327;28;20108;-60
2022/04/17 10:52:30;;;;;;;2.25;1.58;;;20.50;39.60;;;;;;5033872;28;20034;-60
2022/04/17 10:54:55;;;;;;;1.92;1.55;;;20.50;39.60;;;;;;5017795;28;20034;-60
2022/04/17 10:57:27;;;;;;;2.70;1.70;;;20.50;39.30;;;;;;5033737;28;20040;-60
2022/04/17 11:00:23;;;;;;;1.80;1.60;;;20.50;39.40;;;;;;5033457;28;20040;-60
2022/04/17 11:02:49;;;;;;;2.05;1.80;;;20.50;39.50;;;;;;5033895;28;20156;-60
2022/04/17 11:08:21;;;;;;;2.10;1.55;;;20.50;39.30;;;;;;5100699;27;20044;-60
2022/04/17 11:10:52;;;;;;;2.03;1.67;;;20.50;39.50;;;;;;5137088;27;20015;-60
2022/04/17 11:13:18;;;;;;;2.13;1.73;;;20.50;39.40;;;;;;5137278;27;20018;-60
2022/04/17 11:15:51;;;;;;;3.78;1.50;;;20.50;39.20;;;;;;5136634;27;20031;-60
2022/04/17 11:18:23;;;;;;;1.92;1.58;;;20.50;39.40;;;;;;5117308;27;20007;-60
2022/04/17 11:20:53;;;;;;;2.03;1.52;;;20.50;39.00;;;;;;5136860;27;20019;-60
2022/04/17 11:23:49;;;;;;;2.00;1.57;;;20.50;38.90;;;;;;5118361;27;20112;-60
2022/04/17 11:26:16;;;;;;;1.63;1.42;;;20.60;39.40;;;;;;5136400;27;20024;-60
2022/04/17 11:28:43;;;;;;;1.55;1.45;;;20.60;39.30;;;;;;5136618;27;20106;-60
2022/04/17 11:31:09;;;;;;;1.40;1.25;;;20.60;39.00;;;;;;5118024;27;20008;-64
2022/04/17 11:33:35;;;;;;;5.20;1.67;;;20.60;38.90;;;;;;5101029;27;20016;-60
2022/04/17 11:36:02;;;;;;;1.77;1.60;;;20.60;38.80;;;;;;5136884;27;20052;-60
2022/04/17 11:38:29;;;;;;;2.45;1.60;;;20.60;39.10;;;;;;5136703;27;20007;-60
2022/04/17 11:40:56;;;;;;;2.70;1.65;;;20.60;39.60;;;;;;5136054;27;20061;-62
2022/04/17 11:43:22;;;;;;;2.00;1.52;;;20.60;38.90;;;;;;5135951;27;20019;-60
2022/04/17 11:45:48;;;;;;;2.20;1.45;;;20.60;39.00;;;;;;5136310;27;20022;-60
2022/04/17 11:48:16;;;;;;;1.67;1.25;;;20.60;38.90;;;;;;5137860;27;20064;-60
2022/04/17 11:50:43;;;;;;;1.65;1.42;;;20.60;38.90;;;;;;5137513;27;20032;-60
2022/04/17 11:53:16;;;;;;;2.03;1.60;;;20.60;38.80;;;;;;5136144;27;20477;-60
2022/04/17 11:55:43;;;;;;;1.95;1.55;;;20.60;38.50;;;;;;5118226;27;20495;-61
2022/04/17 11:58:12;;;;;;;1.45;1.13;;;20.50;38.60;;;;;;5136122;27;20080;-60
2022/04/17 12:00:39;;;;;;;1.60;1.43;;;20.60;38.50;;;;;;5135684;27;20023;-60
2022/04/17 12:03:05;;;;;;;2.33;1.42;;;20.60;38.20;;;;;;5117826;27;20013;-60
2022/04/17 12:05:32;;;;;;;3.22;1.63;;;20.60;38.60;;;;;;5135808;27;20071;-60
2022/04/17 12:07:57;;;;;;;1.33;1.20;;;20.60;38.30;;;;;;5135562;27;20079;-60
2022/04/17 12:10:24;;;;;;;1.30;1.20;;;20.60;38.50;;;;;;5135631;27;20022;-60
2022/04/17 12:12:52;;;;;;;1.90;1.50;;;20.60;38.50;;;;;;5135881;27;20079;-59
2022/04/17 12:15:19;;;;;;;1.92;1.52;;;20.60;37.80;;;;;;5100319;27;20011;-60
2022/04/17 12:17:44;;;;;;;2.33;1.50;;;20.60;38.70;;;;;;5117915;27;20019;-60
2022/04/17 12:20:13;;;;;;;2.33;1.23;;;20.60;38.50;;;;;;5116731;27;20430;-60
2022/04/17 12:22:39;;;;;;;2.00;1.65;;;20.60;38.10;;;;;;5135186;27;20088;-60
2022/04/17 12:25:14;;;;;;;2.42;1.60;;;20.60;38.60;;;;;;5099890;27;20442;-60
2022/04/17 12:27:40;;;;;;;1.90;1.48;;;20.60;38.20;;;;;;5117175;27;20007;-60
2022/04/17 12:30:09;;;;;;;1.77;1.58;;;20.60;37.80;;;;;;5135060;27;20028;-60
2022/04/17 12:32:45;;;;;;;1.60;1.40;;;20.60;38.30;;;;;;5134962;27;20500;-60
2022/04/17 12:35:15;;;;;;;1.30;1.20;;;20.60;37.90;;;;;;5135073;27;20015;-60
2022/04/17 12:37:40;;;;;;;2.15;1.30;;;20.70;37.90;;;;;;5117138;27;20466;-60
2022/04/17 12:40:39;;;;;;;2.05;1.50;;;20.60;38.00;;;;;;5117071;27;20038;-60
2022/04/17 12:43:20;;;;;;;2.05;1.48;;;20.70;37.80;;;;;;5116515;27;20016;-60
2022/04/17 12:45:55;;;;;;;1.55;1.45;;;20.70;37.90;;;;;;5134919;27;20015;-60
2022/04/17 12:48:38;;;;;;;1.50;1.30;;;20.70;37.30;;;;;;5135012;27;20043;-60
2022/04/17 12:51:05;;;;;;;2.58;1.40;;;20.70;36.90;;;;;;5138591;27;20071;-60
2022/04/17 12:53:37;;;;;;;1.40;1.30;;;20.70;38.10;;;;;;5141355;27;20047;-60
2022/04/17 12:56:04;;;;;;;1.80;1.30;;;20.70;37.30;;;;;;5140792;27;20031;-60
2022/04/17 12:58:45;;;;;;;8.43;1.63;;;20.70;37.40;;;;;;5139204;27;20488;-60
2022/04/17 13:01:17;;;;;;;;;;;20.70;37.30;;;;;;5123613;27;20007;-60
2022/04/17 13:03:43;;;;;;;1.83;1.40;;;20.80;38.00;;;;;;5137454;27;20417;-60
2022/04/17 13:06:10;;;;;;;1.27;1.17;;;20.70;37.80;;;;;;5136261;27;20473;-60
2022/04/17 13:08:36;;;;;;;2.10;1.52;;;20.80;37.40;;;;;;5117607;27;20512;-60
2022/04/17 13:11:19;;;;;;;1.85;1.45;;;20.70;37.90;;;;;;5120145;27;20527;-61
2022/04/17 13:13:50;;;;;;;1.45;1.30;;;20.80;37.70;;;;;;5136214;27;20465;-60